BFG weather

Public forecast

Using degrees Fahrenheit for public forecast. Weather courtesy of forecast.io.

Closest aviation weather report (METAR) to Bullfrog Basin Airport

Closest report is Page Municipal Airport, 51.3 nm (94.9 km) SW. Retrieved 2020/08/15 15:53 UTC (27 minutes ago):

KPGA 151553Z AUTO 00000KT 10SM CLR 32/M06 A3016 RMK AO2 SLP131 T03221061 TSNO

Closest aviation forecast (TAF) to Bullfrog Basin Airport

Closest forecast is Page Municipal Airport, 51.3 nm (94.9 km) SW. Retrieved 2020/08/15 12:28 UTC (4 hours ago):

TAF KPGA 151126Z 1512/1612 VRB05KT P6SM SKC FM152100 03007KT P6SM SKC